Los Antiguos, Argentina
Current Conditions -  °F | °C
As of 4:00 AM on Friday 31 Oct 2014 (Local Time) from SCBA Reporting Station
NA  
Wind Chill: -5°   Ceiling: NA
Heat Index: -1°   Visibility: 6mi
Dew Point: -4°   Wind: 7mph
Humidity: 80%   Direction: 280°W
Pressure: 30"   Gusts: NA
Location:  46.55°S, 71.62°W
Report Text: SCBA 310700Z AUTO 28006KT 250V310 9999 M01/M04 Q1016
Loading
Personal Weather Stations






























Interactive Weather Map
Tropical Storm Tracking
New forecast layout! Learn more

10-Day Weather Forecast

Advertisements
Track Severe Weather on mobile